Time;durP1;ratioP1;P1;durP2;ratioP2;P2;SDS_P1;SDS_P2;PMS_P1;PMS_P2;Temp;Humidity;BMP_temperature;BMP_pressure;BME280_temperature;BME280_humidity;BME280_pressure;Samples;Min_cycle;Max_cycle;Signal;HPM_P1;HPM_P2
2021/05/11 00:01:46;;;;;;;1.30;0.25;;;15.40;99.90;;;;;;5011625;28;20041;-78
2021/05/11 00:04:13;;;;;;;1.73;0.30;;;15.40;99.90;;;;;;5028110;28;20079;-78
2021/05/11 00:06:39;;;;;;;1.15;0.30;;;15.40;99.90;;;;;;5027896;28;20033;-79
2021/05/11 00:09:07;;;;;;;2.95;0.30;;;15.30;99.90;;;;;;5028174;28;20033;-79
2021/05/11 00:11:34;;;;;;;1.67;0.30;;;15.30;99.90;;;;;;5045574;28;20044;-79
2021/05/11 00:14:00;;;;;;;2.67;0.30;;;15.30;99.90;;;;;;5027906;28;20550;-79
2021/05/11 00:16:25;;;;;;;1.70;0.40;;;15.20;99.90;;;;;;5027675;28;20033;-79
2021/05/11 00:18:51;;;;;;;0.60;0.20;;;15.20;99.90;;;;;;5028014;28;20470;-79
2021/05/11 00:21:17;;;;;;;1.88;0.30;;;15.20;99.90;;;;;;5027955;28;20036;-78
2021/05/11 00:23:42;;;;;;;1.58;0.30;;;15.20;99.90;;;;;;5027625;28;20436;-78
2021/05/11 00:26:08;;;;;;;2.83;0.40;;;15.20;99.90;;;;;;5045460;28;20030;-79
2021/05/11 00:28:34;;;;;;;1.85;0.30;;;15.10;99.90;;;;;;5027924;28;20038;-78
2021/05/11 00:30:59;;;;;;;1.40;0.30;;;15.20;99.90;;;;;;5011113;28;20032;-78
2021/05/11 00:33:25;;;;;;;0.90;0.30;;;15.10;99.90;;;;;;5011390;28;20037;-79
2021/05/11 00:35:51;;;;;;;1.10;0.30;;;15.10;99.90;;;;;;5045119;28;20124;-79
2021/05/11 00:38:16;;;;;;;2.17;0.20;;;15.00;99.90;;;;;;5011386;28;20404;-79
2021/05/11 00:40:42;;;;;;;5.45;0.40;;;15.10;99.90;;;;;;5011271;28;20041;-79
2021/05/11 00:43:08;;;;;;;2.78;0.30;;;15.10;99.90;;;;;;5045358;28;20026;-79
2021/05/11 00:45:33;;;;;;;1.98;0.30;;;15.10;99.90;;;;;;5027664;28;20396;-79
2021/05/11 00:47:59;;;;;;;4.00;0.40;;;14.90;99.90;;;;;;5045072;28;20033;-79
2021/05/11 00:50:24;;;;;;;1.02;0.30;;;14.90;99.90;;;;;;5027685;28;20044;-79
2021/05/11 00:52:50;;;;;;;1.42;0.30;;;14.90;99.90;;;;;;5017517;28;20042;-79
2021/05/11 00:55:17;;;;;;;0.93;0.30;;;14.80;99.90;;;;;;4991661;28;20113;-78
2021/05/11 00:57:43;;;;;;;1.70;0.30;;;14.90;99.90;;;;;;5007940;28;20041;-79
2021/05/11 01:00:11;;;;;;;2.25;0.30;;;14.80;99.90;;;;;;5008129;28;20030;-78
2021/05/11 01:02:37;;;;;;;2.95;0.30;;;14.80;99.90;;;;;;5007518;28;20037;-78
2021/05/11 01:05:05;;;;;;;1.35;0.30;;;14.80;99.90;;;;;;5007855;28;20026;-79
2021/05/11 01:07:30;;;;;;;1.38;0.30;;;14.60;99.90;;;;;;5015225;23;20145;-79
2021/05/11 01:09:57;;;;;;;4.20;0.65;;;14.60;99.90;;;;;;5011611;28;20511;-78
2021/05/11 01:12:24;;;;;;;2.17;0.38;;;14.60;99.90;;;;;;5045231;28;20044;-79
2021/05/11 01:14:51;;;;;;;0.90;0.30;;;14.60;99.90;;;;;;5045681;28;20101;-79
2021/05/11 01:17:23;;;;;;;1.35;0.30;;;14.50;99.90;;;;;;5027601;28;20033;-80
2021/05/11 01:19:53;;;;;;;1.85;0.40;;;14.50;99.90;;;;;;5011179;28;20064;-80
2021/05/11 01:25:13;;;;;;;1.77;0.40;;;14.40;99.90;;;;;;5000066;28;20404;-80
2021/05/11 01:28:06;;;;;;;5.22;0.40;;;14.40;99.90;;;;;;5027771;28;20048;-80
2021/05/11 01:44:48;;;;;;;2.35;0.43;;;14.20;99.90;;;;;;5048432;28;20053;-79
2021/05/11 02:25:00;;;;;;;3.72;0.55;;;14.10;99.90;;;;;;4950981;29;20037;-79
2021/05/11 02:27:26;;;;;;;3.47;0.60;;;14.00;99.90;;;;;;4934996;29;20126;-79
2021/05/11 02:29:52;;;;;;;3.22;0.50;;;14.00;99.90;;;;;;4966982;29;20050;-79
2021/05/11 02:32:18;;;;;;;4.30;0.50;;;14.00;99.90;;;;;;4950686;29;20045;-79
2021/05/11 02:34:45;;;;;;;2.47;0.55;;;13.90;99.90;;;;;;4934730;29;20043;-79
2021/05/11 02:37:10;;;;;;;3.03;0.50;;;14.00;99.90;;;;;;4934874;29;20035;-79
2021/05/11 02:39:37;;;;;;;4.03;0.50;;;14.00;99.90;;;;;;4967242;29;20039;-79
2021/05/11 02:42:06;;;;;;;2.47;0.60;;;14.00;99.90;;;;;;4951204;29;20690;-78
2021/05/11 02:44:42;;;;;;;4.15;0.77;;;14.00;99.90;;;;;;4954316;28;20031;-79
2021/05/11 02:47:08;;;;;;;1.83;0.52;;;14.00;99.90;;;;;;4992712;28;20034;-79
2021/05/11 02:49:36;;;;;;;4.32;0.60;;;14.00;99.90;;;;;;5009530;28;20022;-79
2021/05/11 02:52:02;;;;;;;1.67;0.52;;;14.00;99.90;;;;;;5009640;28;20038;-80
2021/05/11 02:54:28;;;;;;;6.38;0.88;;;13.80;99.90;;;;;;5009492;28;20026;-80
2021/05/11 02:56:53;;;;;;;4.00;0.70;;;13.70;99.90;;;;;;5009638;28;20034;-80
2021/05/11 02:59:19;;;;;;;4.57;0.80;;;13.60;99.90;;;;;;5027212;28;20033;-79
2021/05/11 03:01:44;;;;;;;4.22;1.10;;;13.60;99.90;;;;;;5009477;28;20080;-80
2021/05/11 03:04:10;;;;;;;3.22;1.27;;;13.70;99.90;;;;;;5009512;28;20030;-79
2021/05/11 03:06:35;;;;;;;5.00;0.95;;;13.70;99.90;;;;;;5009199;28;20038;-79
2021/05/11 03:09:01;;;;;;;2.33;0.60;;;13.70;99.90;;;;;;4993262;28;20089;-79
2021/05/11 03:11:27;;;;;;;3.45;0.77;;;13.70;99.90;;;;;;5009176;28;20049;-79
2021/05/11 03:13:52;;;;;;;3.75;0.73;;;13.70;99.90;;;;;;5009219;28;20036;-78
2021/05/11 03:16:18;;;;;;;3.00;0.90;;;13.70;99.90;;;;;;4993131;28;20041;-79
2021/05/11 03:18:44;;;;;;;3.40;0.80;;;13.60;99.90;;;;;;5009185;28;20034;-79
2021/05/11 03:21:10;;;;;;;5.95;1.05;;;13.60;99.90;;;;;;4992921;28;20040;-79
2021/05/11 03:23:36;;;;;;;3.42;1.10;;;13.50;99.90;;;;;;5026737;28;20041;-79
2021/05/11 03:26:02;;;;;;;3.17;1.00;;;13.50;99.90;;;;;;5045344;28;20025;-79
2021/05/11 03:28:27;;;;;;;5.40;0.93;;;13.50;99.90;;;;;;5028897;28;20037;-79
2021/05/11 03:30:53;;;;;;;4.43;1.10;;;13.40;99.90;;;;;;5045152;28;20044;-79
2021/05/11 03:33:19;;;;;;;2.33;0.90;;;13.40;99.90;;;;;;5046322;28;20035;-79
2021/05/11 03:35:44;;;;;;;3.05;0.98;;;13.40;99.90;;;;;;5011919;28;20049;-80
2021/05/11 03:38:10;;;;;;;3.03;0.90;;;13.40;99.90;;;;;;5028336;28;20033;-79
2021/05/11 03:40:37;;;;;;;6.30;1.20;;;13.50;99.90;;;;;;5012006;28;20042;-79
2021/05/11 03:43:49;;;;;;;1.90;0.70;;;13.50;99.90;;;;;;5028280;28;20105;-79
2021/05/11 03:46:06;;;;;;;1.85;0.68;;;13.50;99.90;;;;;;5036743;28;20104;-79
2021/05/11 03:48:32;;;;;;;3.03;0.80;;;13.60;99.90;;;;;;5028632;28;20029;-79
2021/05/11 03:51:05;;;;;;;4.82;0.73;;;13.60;99.90;;;;;;5011837;28;20061;-80
2021/05/11 03:53:31;;;;;;;4.75;0.70;;;13.60;99.90;;;;;;5011844;28;20078;-79
2021/05/11 03:55:56;;;;;;;2.33;0.77;;;13.60;99.90;;;;;;5044709;28;20052;-79
2021/05/11 03:58:22;;;;;;;2.25;0.70;;;13.60;99.90;;;;;;5011472;28;20092;-79
2021/05/11 04:00:48;;;;;;;3.08;0.80;;;13.60;99.90;;;;;;5028184;28;20076;-79
2021/05/11 04:03:13;;;;;;;2.13;0.70;;;13.60;99.90;;;;;;5027886;28;20033;-79
2021/05/11 04:06:00;;;;;;;3.65;0.80;;;13.60;99.90;;;;;;5027802;28;20505;-79
2021/05/11 04:08:40;;;;;;;3.78;0.70;;;13.60;99.90;;;;;;4948993;29;20047;-79
2021/05/11 04:16:29;;;;;;;4.82;0.80;;;13.40;99.90;;;;;;4965053;29;20057;-79
2021/05/11 04:18:55;;;;;;;4.25;0.80;;;13.40;99.90;;;;;;4948972;29;20039;-78
2021/05/11 04:21:22;;;;;;;3.42;1.05;;;13.40;99.90;;;;;;4948825;29;20039;-79
2021/05/11 04:23:50;;;;;;;3.70;1.13;;;13.40;99.90;;;;;;4964793;29;20038;-79
2021/05/11 04:26:17;;;;;;;2.03;0.65;;;13.40;99.90;;;;;;4948787;29;20454;-79
2021/05/11 04:28:44;;;;;;;3.00;0.70;;;13.40;99.90;;;;;;4948954;29;20039;-79
2021/05/11 04:31:10;;;;;;;3.30;0.63;;;13.40;99.90;;;;;;4938282;29;20023;-79
2021/05/11 04:33:36;;;;;;;3.33;0.73;;;13.40;99.90;;;;;;4937293;29;20058;-79
2021/05/11 04:36:03;;;;;;;2.33;0.50;;;13.40;99.90;;;;;;4933821;28;20043;-78
2021/05/11 04:38:29;;;;;;;2.58;0.70;;;13.40;99.90;;;;;;4955059;29;20568;-78
2021/05/11 04:40:55;;;;;;;1.92;0.52;;;13.50;99.90;;;;;;4913043;29;20075;-79
2021/05/11 04:43:24;;;;;;;2.22;0.68;;;13.50;99.90;;;;;;4928679;29;20032;-79
2021/05/11 04:45:51;;;;;;;3.45;0.80;;;13.50;99.90;;;;;;4998179;28;20038;-79
2021/05/11 04:48:17;;;;;;;3.08;0.80;;;13.50;99.90;;;;;;5014982;28;20087;-79
2021/05/11 04:50:42;;;;;;;4.05;1.13;;;13.50;99.90;;;;;;5024510;28;20030;-79
2021/05/11 04:53:08;;;;;;;2.13;0.70;;;13.50;99.90;;;;;;5019083;28;20029;-78
2021/05/11 04:55:34;;;;;;;4.07;0.55;;;13.50;99.90;;;;;;5016474;28;20485;-78
2021/05/11 04:58:00;;;;;;;2.22;0.80;;;13.50;99.90;;;;;;5024915;28;20022;-78
2021/05/11 05:00:26;;;;;;;2.53;0.63;;;13.40;99.90;;;;;;4990907;28;20030;-79
2021/05/11 05:02:54;;;;;;;2.55;0.90;;;13.40;99.90;;;;;;5024632;28;20088;-79
2021/05/11 05:05:20;;;;;;;3.80;0.80;;;13.40;99.90;;;;;;5007195;28;20037;-79
2021/05/11 05:07:46;;;;;;;2.55;0.60;;;13.40;99.90;;;;;;5006870;28;20056;-79
2021/05/11 05:10:12;;;;;;;3.55;0.70;;;13.50;99.90;;;;;;5009895;28;20097;-79
2021/05/11 05:12:38;;;;;;;2.40;0.70;;;13.50;99.90;;;;;;5010693;28;20026;-79
2021/05/11 05:15:05;;;;;;;4.45;0.60;;;13.50;99.90;;;;;;5010955;28;20050;-79
2021/05/11 05:17:31;;;;;;;2.55;0.80;;;13.50;99.90;;;;;;5028042;28;20036;-79
2021/05/11 05:19:57;;;;;;;2.40;0.60;;;13.50;99.90;;;;;;5015887;28;20033;-79
2021/05/11 05:22:23;;;;;;;2.45;0.70;;;13.50;99.90;;;;;;5029736;28;20026;-79
2021/05/11 05:27:22;;;;;;;1.90;0.60;;;13.50;99.90;;;;;;5028160;28;20040;-79
2021/05/11 05:29:48;;;;;;;3.10;0.60;;;13.60;99.90;;;;;;5013467;28;20026;-79
2021/05/11 05:32:15;;;;;;;3.08;0.73;;;13.60;99.90;;;;;;5027893;28;20034;-78
2021/05/11 05:34:42;;;;;;;2.33;0.80;;;13.70;99.90;;;;;;4993678;28;20393;-79
2021/05/11 05:37:08;;;;;;;3.08;0.95;;;13.70;99.90;;;;;;5000712;28;20045;-80
2021/05/11 05:42:03;;;;;;;2.33;0.95;;;13.70;99.90;;;;;;5026437;28;20033;-79
2021/05/11 05:44:29;;;;;;;3.15;0.95;;;13.70;99.90;;;;;;5026654;28;20025;-79
2021/05/11 05:46:55;;;;;;;3.22;0.80;;;13.60;99.90;;;;;;5026414;28;20057;-79
2021/05/11 05:49:22;;;;;;;2.70;0.95;;;13.70;99.90;;;;;;5026185;28;20389;-79
2021/05/11 05:51:49;;;;;;;3.42;0.80;;;13.60;99.90;;;;;;5026105;28;20038;-78
2021/05/11 05:54:15;;;;;;;4.95;0.85;;;13.70;99.90;;;;;;5026355;28;20105;-78
2021/05/11 05:56:41;;;;;;;3.78;1.13;;;13.70;99.90;;;;;;5026276;28;20541;-78
2021/05/11 05:59:07;;;;;;;2.47;0.80;;;13.70;99.90;;;;;;5026311;28;20021;-78
2021/05/11 06:01:32;;;;;;;3.30;1.00;;;13.80;99.90;;;;;;5026241;28;20038;-78
2021/05/11 06:04:07;;;;;;;2.25;0.70;;;13.80;99.90;;;;;;5025874;28;20026;-78
2021/05/11 06:06:33;;;;;;;4.05;0.70;;;13.80;99.90;;;;;;5027066;28;20045;-77
2021/05/11 06:08:59;;;;;;;4.28;0.88;;;13.90;99.90;;;;;;5027212;28;20036;-77
2021/05/11 06:11:37;;;;;;;2.00;0.70;;;13.90;99.90;;;;;;5009611;28;20030;-77
2021/05/11 06:19:14;;;;;;;1.60;0.60;;;14.00;99.90;;;;;;5027237;28;20041;-78
2021/05/11 06:21:40;;;;;;;2.72;0.90;;;14.10;99.90;;;;;;5025586;28;20034;-77
2021/05/11 06:24:06;;;;;;;2.33;0.90;;;14.20;99.90;;;;;;5029981;28;20026;-78
2021/05/11 06:26:32;;;;;;;3.45;1.25;;;14.30;99.90;;;;;;5029156;28;20428;-78
2021/05/11 06:29:00;;;;;;;2.20;0.80;;;14.40;99.90;;;;;;5046857;28;20051;-77
2021/05/11 06:31:26;;;;;;;3.38;0.93;;;14.60;99.90;;;;;;5028973;28;20057;-78
2021/05/11 06:33:51;;;;;;;3.03;1.00;;;14.70;99.90;;;;;;5045100;28;20037;-78
2021/05/11 06:36:17;;;;;;;5.28;1.00;;;14.70;99.90;;;;;;5028751;28;20055;-77
2021/05/11 06:39:09;;;;;;;;;;;;;;;;;;;;;
2021/05/11 06:41:40;;;;;;;1.50;0.60;;;14.90;99.90;;;;;;5028825;28;20030;-78
2021/05/11 06:44:08;;;;;;;2.33;0.63;;;15.00;99.90;;;;;;5012416;28;20084;-77
2021/05/11 06:54:38;;;;;;;2.63;0.77;;;15.40;99.90;;;;;;5045018;28;20049;-78
2021/05/11 06:57:05;;;;;;;4.32;1.10;;;15.30;99.90;;;;;;5045112;28;20037;-78
2021/05/11 06:59:30;;;;;;;2.30;0.80;;;15.40;99.90;;;;;;5028668;28;20030;-78
2021/05/11 07:01:56;;;;;;;3.75;1.00;;;15.50;99.90;;;;;;5012121;28;20135;-78
2021/05/11 07:04:21;;;;;;;2.78;1.20;;;15.60;99.90;;;;;;5028282;28;20037;-78
2021/05/11 07:06:47;;;;;;;3.33;1.00;;;15.60;99.90;;;;;;5045987;28;20029;-78
2021/05/11 07:09:17;;;;;;;2.90;1.00;;;15.70;99.90;;;;;;5028463;28;20040;-78
2021/05/11 07:14:08;;;;;;;2.55;0.93;;;15.70;99.90;;;;;;5046173;28;20033;-79
2021/05/11 07:16:34;;;;;;;3.53;1.20;;;15.80;99.90;;;;;;5028192;28;20052;-79
2021/05/11 07:18:59;;;;;;;3.47;1.13;;;15.70;99.90;;;;;;5027767;28;20055;-79
2021/05/11 07:21:25;;;;;;;3.08;1.00;;;15.90;99.90;;;;;;5028140;28;20077;-79
2021/05/11 07:23:51;;;;;;;3.95;1.10;;;16.00;99.90;;;;;;5028050;28;20044;-79
2021/05/11 07:31:20;;;;;;;5.28;1.23;;;16.00;99.90;;;;;;5045228;28;20508;-79
2021/05/11 07:33:51;;;;;;;3.35;1.08;;;16.20;99.90;;;;;;5044162;28;20037;-79
2021/05/11 07:36:18;;;;;;;2.83;1.02;;;16.00;99.90;;;;;;5024258;28;20037;-79
2021/05/11 07:38:44;;;;;;;2.13;0.80;;;15.90;99.90;;;;;;5024359;28;20042;-79
2021/05/11 07:41:12;;;;;;;2.85;0.80;;;16.00;99.90;;;;;;5024225;28;20041;-79
2021/05/11 07:43:39;;;;;;;3.28;0.88;;;16.30;99.90;;;;;;5025775;28;20137;-79
2021/05/11 08:04:58;;;;;;;3.42;0.80;;;17.60;99.90;;;;;;5025589;28;20018;-80
2021/05/11 08:15:37;;;;;;;3.35;0.80;;;17.30;99.90;;;;;;5025076;28;20050;-79
2021/05/11 08:21:50;;;;;;;2.60;0.98;;;17.10;99.90;;;;;;5025204;28;20109;-79
2021/05/11 08:28:26;;;;;;;2.28;0.60;;;17.40;99.90;;;;;;5027175;28;20041;-79
2021/05/11 08:30:52;;;;;;;2.90;0.80;;;17.30;99.90;;;;;;5026957;28;20053;-79
2021/05/11 08:33:18;;;;;;;5.57;0.90;;;17.30;99.90;;;;;;5043330;28;20049;-79
2021/05/11 08:35:44;;;;;;;3.85;0.98;;;17.20;99.90;;;;;;5044469;28;20401;-79
2021/05/11 08:38:10;;;;;;;4.60;0.90;;;17.30;99.90;;;;;;5023803;28;20040;-79
2021/05/11 08:40:37;;;;;;;2.30;0.77;;;17.10;99.90;;;;;;5007143;28;20034;-79
2021/05/11 08:43:08;;;;;;;2.30;0.80;;;17.10;99.90;;;;;;5025760;28;20077;-79
2021/05/11 08:45:34;;;;;;;3.63;0.73;;;17.00;99.90;;;;;;5028968;28;20044;-79
2021/05/11 08:47:59;;;;;;;2.58;0.70;;;17.00;99.90;;;;;;5027510;28;20136;-79
2021/05/11 08:50:33;;;;;;;3.95;1.45;;;17.00;99.90;;;;;;5028849;28;20096;-79
2021/05/11 08:53:20;;;;;;;3.63;1.00;;;16.80;99.90;;;;;;5027497;28;20037;-79
2021/05/11 09:07:39;;;;;;;2.85;0.98;;;16.70;99.90;;;;;;5028435;28;20098;-78
2021/05/11 09:26:49;;;;;;;3.67;0.70;;;16.50;99.90;;;;;;5030559;28;20038;-78
2021/05/11 10:39:22;;;;;;;6.45;2.05;;;19.60;99.90;;;;;;5029033;28;20035;-80
2021/05/11 10:42:19;;;;;;;6.20;1.77;;;19.10;99.90;;;;;;5046618;28;20048;-80
2021/05/11 10:46:24;;;;;;;4.80;2.17;;;18.90;99.90;;;;;;5046526;28;20045;-80
2021/05/11 10:48:19;;;;;;;5.32;2.25;;;18.10;99.90;;;;;;5037388;28;20033;-79
2021/05/11 10:50:53;;;;;;;6.75;2.30;;;17.80;99.90;;;;;;5046451;28;20033;-79
2021/05/11 10:53:48;;;;;;;4.55;1.98;;;17.50;99.90;;;;;;5012230;28;20033;-79
2021/05/11 10:56:35;;;;;;;5.18;2.05;;;17.60;99.90;;;;;;5028586;28;20052;-79
2021/05/11 10:59:42;;;;;;;6.13;1.23;;;17.60;99.90;;;;;;5012545;28;20501;-79
2021/05/11 11:02:38;;;;;;;5.68;1.50;;;17.80;99.90;;;;;;5028592;28;20053;-80
2021/05/11 11:05:05;;;;;;;3.60;1.20;;;17.70;99.90;;;;;;5046434;28;20038;-79
2021/05/11 11:07:42;;;;;;;3.97;1.52;;;17.90;99.90;;;;;;5019420;23;20140;-80
2021/05/11 11:10:09;;;;;;;5.57;2.30;;;17.50;99.90;;;;;;5029233;28;20033;-80
2021/05/11 11:12:39;;;;;;;2.80;1.10;;;17.40;99.90;;;;;;5012267;28;20029;-79
2021/05/11 11:15:10;;;;;;;;;;;17.50;99.90;;;;;;5029171;28;20052;-80
2021/05/11 11:17:41;;;;;;;5.55;1.70;;;17.40;99.90;;;;;;5028528;28;19959;-80
2021/05/11 11:20:10;;;;;;;5.22;1.15;;;17.50;99.90;;;;;;5012421;28;20461;-79
2021/05/11 11:23:36;;;;;;;4.35;1.30;;;17.60;99.90;;;;;;5012152;28;20037;-79
2021/05/11 11:25:30;;;;;;;5.68;1.80;;;17.60;99.90;;;;;;4992205;28;20068;-80
2021/05/11 11:27:56;;;;;;;4.65;1.88;;;17.40;99.90;;;;;;5008899;28;20053;-80
2021/05/11 11:30:22;;;;;;;6.35;2.03;;;17.30;99.90;;;;;;5008825;28;20120;-79
2021/05/11 11:32:49;;;;;;;3.63;1.70;;;17.10;99.90;;;;;;5008894;28;20084;-79
2021/05/11 11:35:15;;;;;;;6.32;1.90;;;17.00;99.90;;;;;;5008846;28;20449;-79
2021/05/11 11:37:41;;;;;;;4.38;2.05;;;17.10;99.90;;;;;;5023354;28;20037;-80
2021/05/11 11:40:11;;;;;;;6.30;1.10;;;17.10;99.90;;;;;;5012085;28;20069;-79
2021/05/11 11:42:40;;;;;;;4.18;1.77;;;17.10;99.90;;;;;;5011509;28;20045;-80
2021/05/11 11:45:26;;;;;;;4.68;2.25;;;17.00;99.90;;;;;;5028028;28;20029;-79
2021/05/11 11:48:12;;;;;;;3.85;1.77;;;17.00;99.90;;;;;;5028131;28;20033;-79
2021/05/11 11:50:39;;;;;;;4.80;1.95;;;16.90;99.90;;;;;;5044474;28;20112;-79
2021/05/11 11:53:13;;;;;;;5.80;2.60;;;16.80;99.90;;;;;;5027683;28;20037;-78
2021/05/11 11:58:24;;;;;;;3.17;1.95;;;16.70;99.90;;;;;;5045649;28;20033;-79
2021/05/11 12:00:50;;;;;;;4.38;1.83;;;16.70;99.90;;;;;;5045508;28;20056;-78
2021/05/11 12:03:17;;;;;;;4.85;1.73;;;16.70;99.90;;;;;;5044423;28;20033;-78
2021/05/11 12:06:03;;;;;;;4.45;2.22;;;16.60;99.90;;;;;;5011686;28;20060;-79
2021/05/11 12:08:30;;;;;;;4.45;1.80;;;16.50;99.90;;;;;;5003182;28;20077;-79
2021/05/11 12:11:05;;;;;;;4.95;1.52;;;16.70;99.90;;;;;;5003334;28;20081;-79
2021/05/11 12:13:37;;;;;;;3.58;1.75;;;16.50;99.90;;;;;;5003336;28;20045;-79
2021/05/11 12:16:13;;;;;;;4.38;1.45;;;16.40;99.90;;;;;;4986990;28;20106;-79
2021/05/11 12:18:55;;;;;;;4.38;2.17;;;16.20;99.90;;;;;;5002524;28;20104;-79
2021/05/11 12:21:20;;;;;;;5.65;2.38;;;15.90;99.90;;;;;;5003207;28;20034;-79
2021/05/11 12:23:47;;;;;;;5.45;2.60;;;15.90;99.90;;;;;;5003202;28;20118;-79
2021/05/11 12:26:19;;;;;;;3.67;1.92;;;15.90;99.90;;;;;;5003314;28;20042;-79
2021/05/11 12:28:44;;;;;;;5.70;1.92;;;15.80;99.90;;;;;;4986790;28;20126;-79
2021/05/11 12:31:11;;;;;;;5.57;2.25;;;16.00;99.90;;;;;;4986510;28;20039;-79
2021/05/11 12:33:44;;;;;;;4.03;2.08;;;15.80;99.90;;;;;;4972043;28;20128;-80
2021/05/11 12:36:55;;;;;;;5.47;2.28;;;15.90;99.90;;;;;;5002135;28;20880;-81
2021/05/11 12:42:17;;;;;;;5.50;3.00;;;15.80;99.90;;;;;;5002685;28;20041;-80
2021/05/11 12:44:43;;;;;;;4.38;2.92;;;15.70;99.90;;;;;;4989406;28;20053;-80
2021/05/11 12:47:09;;;;;;;4.57;2.85;;;15.70;99.90;;;;;;5007119;28;20089;-80
2021/05/11 12:49:36;;;;;;;5.43;2.72;;;15.70;99.90;;;;;;5007166;28;20089;-80
2021/05/11 12:52:06;;;;;;;6.03;3.00;;;15.50;99.90;;;;;;5007024;28;20101;-80
2021/05/11 12:54:39;;;;;;;4.53;3.20;;;15.60;99.90;;;;;;5006974;28;20049;-80
2021/05/11 12:57:16;;;;;;;4.78;2.95;;;15.70;99.90;;;;;;4990990;28;20057;-80
2021/05/11 13:00:11;;;;;;;4.40;2.35;;;15.80;99.90;;;;;;5024815;28;20105;-80
2021/05/11 13:17:02;;;;;;;4.75;4.32;;;15.90;99.90;;;;;;4974620;28;20046;-81
2021/05/11 13:22:45;;;;;;;6.00;5.40;;;15.80;99.90;;;;;;4947834;29;20082;-80
2021/05/11 13:25:25;;;;;;;5.35;4.85;;;15.80;99.90;;;;;;4973100;28;20043;-80
2021/05/11 13:28:00;;;;;;;6.32;5.70;;;15.80;99.90;;;;;;4963911;29;20050;-80
2021/05/11 13:33:16;;;;;;;7.07;6.22;;;15.70;99.90;;;;;;4967066;29;20035;-79
2021/05/11 13:35:41;;;;;;;8.00;7.20;;;15.50;99.90;;;;;;4967012;29;20090;-79
2021/05/11 13:38:07;;;;;;;8.02;7.32;;;15.50;99.90;;;;;;4969255;28;20043;-80
2021/05/11 13:40:34;;;;;;;8.60;7.60;;;15.40;99.90;;;;;;4970698;28;20043;-79
2021/05/11 13:42:59;;;;;;;9.35;7.03;;;15.40;99.90;;;;;;4970433;28;20090;-79
2021/05/11 13:45:25;;;;;;;8.27;7.47;;;15.40;99.90;;;;;;4996995;28;20054;-79
2021/05/11 13:48:07;;;;;;;8.07;7.28;;;15.40;99.90;;;;;;4989664;28;20062;-79
2021/05/11 13:50:56;;;;;;;7.97;7.18;;;15.40;99.90;;;;;;4973933;28;20081;-79
2021/05/11 13:53:21;;;;;;;8.23;7.32;;;15.40;99.90;;;;;;5016438;28;20037;-79
2021/05/11 14:04:01;;;;;;;8.75;7.68;;;15.20;99.90;;;;;;5046188;28;20032;-79
2021/05/11 14:06:27;;;;;;;9.07;7.47;;;15.20;99.90;;;;;;5045971;28;20029;-79
2021/05/11 14:08:53;;;;;;;7.30;6.53;;;15.10;99.90;;;;;;5045751;28;20049;-79
2021/05/11 14:11:20;;;;;;;8.27;7.47;;;15.00;99.90;;;;;;5047459;28;20060;-80
2021/05/11 14:13:46;;;;;;;7.90;7.10;;;14.90;99.90;;;;;;5029638;28;20091;-80
2021/05/11 14:16:11;;;;;;;8.35;7.28;;;14.90;99.90;;;;;;5029483;28;20117;-80
2021/05/11 14:18:38;;;;;;;9.35;8.48;;;15.00;99.90;;;;;;5047094;28;20314;-79
2021/05/11 14:21:05;;;;;;;7.78;6.78;;;15.00;99.90;;;;;;5029471;28;20041;-79
2021/05/11 14:23:31;;;;;;;8.82;6.68;;;15.00;99.90;;;;;;5046199;28;20124;-79
2021/05/11 14:25:57;;;;;;;9.68;7.45;;;15.00;99.90;;;;;;5062359;28;20117;-79
2021/05/11 14:28:23;;;;;;;8.18;7.13;;;15.00;99.90;;;;;;5046078;28;20034;-80
2021/05/11 14:30:49;;;;;;;8.77;7.88;;;14.90;99.90;;;;;;5045634;28;20030;-79
2021/05/11 14:33:15;;;;;;;7.80;6.32;;;15.00;99.90;;;;;;5045893;28;20056;-79
2021/05/11 14:35:40;;;;;;;8.15;6.80;;;14.80;99.90;;;;;;5041321;28;20065;-80
2021/05/11 14:38:06;;;;;;;7.00;5.90;;;14.90;99.90;;;;;;5041050;28;20442;-80
2021/05/11 14:40:32;;;;;;;7.72;6.50;;;14.80;99.90;;;;;;5027019;28;20540;-80
2021/05/11 14:42:58;;;;;;;8.60;6.78;;;14.80;99.90;;;;;;5027441;28;20042;-79
2021/05/11 14:45:25;;;;;;;6.20;5.60;;;14.80;99.90;;;;;;5028667;28;20029;-80
2021/05/11 14:47:50;;;;;;;7.55;6.72;;;14.80;99.90;;;;;;5045517;28;20035;-79
2021/05/11 14:50:18;;;;;;;8.93;6.70;;;14.80;99.90;;;;;;5028694;28;20057;-80
2021/05/11 14:52:44;;;;;;;8.63;7.78;;;14.90;99.90;;;;;;5045436;28;20603;-80
2021/05/11 14:55:14;;;;;;;7.80;6.78;;;14.80;99.90;;;;;;5028690;28;20053;-79
2021/05/11 14:57:40;;;;;;;;;;;14.70;99.90;;;;;;5046782;28;20126;-80
2021/05/11 15:00:07;;;;;;;8.90;6.95;;;14.80;99.90;;;;;;5045087;28;19912;-80
2021/05/11 15:02:34;;;;;;;7.95;6.50;;;14.80;99.90;;;;;;5045121;28;20101;-81
2021/05/11 15:05:00;;;;;;;9.95;8.27;;;14.80;99.90;;;;;;5044974;28;20041;-80
2021/05/11 15:07:26;;;;;;;8.98;8.07;;;14.80;99.90;;;;;;5027327;28;20029;-81
2021/05/11 15:09:52;;;;;;;6.40;5.80;;;14.80;99.90;;;;;;5045983;28;20041;-80
2021/05/11 15:12:21;;;;;;;6.80;5.85;;;14.70;99.90;;;;;;5028080;28;20037;-80
2021/05/11 15:14:46;;;;;;;5.90;5.00;;;14.60;99.90;;;;;;5024086;28;20033;-80
2021/05/11 15:19:47;;;;;;;5.78;4.07;;;14.50;99.90;;;;;;5008331;28;20110;-80
2021/05/11 15:22:13;;;;;;;7.25;5.47;;;14.50;99.90;;;;;;5008307;28;20022;-80
2021/05/11 15:24:38;;;;;;;6.15;5.07;;;14.60;99.90;;;;;;5008795;28;20480;-80
2021/05/11 15:27:04;;;;;;;5.88;4.90;;;14.60;99.90;;;;;;5028177;28;20038;-81
2021/05/11 15:29:31;;;;;;;7.80;5.20;;;14.60;99.90;;;;;;5028019;28;20029;-80
2021/05/11 15:31:57;;;;;;;4.93;4.18;;;14.60;99.90;;;;;;5027360;28;20038;-80
2021/05/11 15:34:24;;;;;;;6.28;5.03;;;14.70;99.90;;;;;;5011368;28;20030;-80
2021/05/11 15:36:50;;;;;;;6.25;4.32;;;14.70;99.90;;;;;;5010741;28;20041;-81
2021/05/11 15:39:16;;;;;;;5.13;4.50;;;14.70;99.90;;;;;;5010905;28;20496;-80
2021/05/11 15:41:42;;;;;;;6.30;4.50;;;14.70;99.90;;;;;;5009801;28;20096;-80
2021/05/11 15:44:08;;;;;;;7.25;4.40;;;14.60;99.90;;;;;;5008924;28;20109;-80
2021/05/11 15:46:34;;;;;;;4.13;3.72;;;14.60;99.90;;;;;;5027386;28;20033;-80
2021/05/11 15:48:59;;;;;;;6.30;3.80;;;14.50;99.90;;;;;;5027625;28;20053;-80
2021/05/11 15:51:25;;;;;;;7.90;3.45;;;14.50;99.90;;;;;;5026849;28;20096;-80
2021/05/11 15:53:51;;;;;;;6.65;3.85;;;14.50;99.90;;;;;;5026470;28;20123;-80
2021/05/11 15:56:16;;;;;;;5.63;2.65;;;14.50;99.90;;;;;;5027131;28;20048;-80
2021/05/11 15:58:43;;;;;;;4.68;2.60;;;14.60;99.90;;;;;;5026933;28;20018;-80
2021/05/11 16:01:09;;;;;;;6.32;4.18;;;14.50;99.90;;;;;;5026010;28;20041;-80
2021/05/11 16:03:35;;;;;;;6.35;4.20;;;14.40;99.90;;;;;;5009895;28;20059;-80
2021/05/11 16:06:00;;;;;;;5.05;3.38;;;14.50;99.90;;;;;;5026480;28;20048;-81
2021/05/11 16:08:29;;;;;;;6.57;3.85;;;14.50;99.90;;;;;;5043750;28;20084;-80
2021/05/11 16:10:56;;;;;;;7.37;4.40;;;14.60;99.90;;;;;;4995454;28;20064;-81
2021/05/11 16:13:24;;;;;;;8.07;5.78;;;14.50;99.90;;;;;;5023762;28;20072;-80
2021/05/11 16:15:50;;;;;;;5.88;4.20;;;14.60;99.90;;;;;;5025132;28;20099;-80
2021/05/11 16:18:17;;;;;;;6.70;4.25;;;14.50;99.90;;;;;;5025086;28;20037;-80
2021/05/11 16:20:44;;;;;;;8.27;4.32;;;14.50;99.90;;;;;;5025926;28;20037;-80
2021/05/11 16:23:10;;;;;;;6.85;5.47;;;14.40;99.90;;;;;;5026121;28;20049;-80
2021/05/11 16:25:39;;;;;;;6.60;4.32;;;14.40;99.90;;;;;;5008592;28;20071;-80
2021/05/11 16:28:06;;;;;;;7.28;5.15;;;14.50;99.90;;;;;;5025934;28;20033;-80
2021/05/11 16:30:32;;;;;;;9.30;5.88;;;14.40;99.90;;;;;;5025048;28;20420;-80
2021/05/11 16:32:58;;;;;;;7.93;5.70;;;14.40;99.90;;;;;;5009430;28;20108;-80
2021/05/11 16:35:24;;;;;;;10.00;5.57;;;14.30;99.90;;;;;;5009109;28;20041;-80
2021/05/11 16:37:50;;;;;;;7.03;4.95;;;14.20;99.90;;;;;;5025850;28;20030;-81
2021/05/11 16:40:16;;;;;;;8.02;5.30;;;14.30;99.90;;;;;;5026137;28;20068;-80
2021/05/11 16:42:42;;;;;;;8.02;4.97;;;14.30;99.90;;;;;;5000481;28;20057;-80
2021/05/11 16:45:11;;;;;;;8.38;6.05;;;14.30;99.90;;;;;;5025398;28;20112;-80
2021/05/11 16:47:53;;;;;;;7.25;5.78;;;14.30;99.90;;;;;;5018501;23;20049;-80
2021/05/11 16:50:30;;;;;;;6.50;5.18;;;14.40;99.90;;;;;;5023407;28;20040;-80
2021/05/11 16:52:59;;;;;;;7.30;5.78;;;14.30;99.90;;;;;;4990672;28;20037;-81
2021/05/11 16:55:25;;;;;;;8.20;5.75;;;14.20;99.90;;;;;;5007105;28;20049;-80
2021/05/11 16:57:56;;;;;;;7.93;6.22;;;14.00;99.90;;;;;;4991539;28;20030;-80
2021/05/11 17:00:22;;;;;;;8.77;6.25;;;14.00;99.90;;;;;;5006731;28;20084;-81
2021/05/11 17:02:48;;;;;;;7.88;5.70;;;14.00;99.90;;;;;;5006913;28;20042;-80
2021/05/11 17:05:15;;;;;;;8.35;6.15;;;14.00;99.90;;;;;;5008109;28;20030;-80
2021/05/11 17:07:40;;;;;;;9.43;7.03;;;14.10;99.90;;;;;;5026282;28;20041;-81
2021/05/11 17:10:07;;;;;;;7.70;6.63;;;14.20;99.90;;;;;;5010347;28;20030;-80
2021/05/11 17:12:33;;;;;;;8.10;6.10;;;14.20;99.90;;;;;;5000924;28;20064;-80